Terminal Aerodrome Forecast
Issued by NWS Greer, SC

Home | Current Version | Previous Version | Text Only | Print | Product List | Glossary On
Versions: 1 2 3 4 5 6 7 8 9 10 11 12 13 14 15 16 17 18 19 20 21 22 23 24 25 26 27 28 29 30 31 32 33 34 35 36 37 38 39 40 41 42 43 44 45 46 47
000
FTUS42 KGSP 232320
TAFCLT
TAF
KCLT 232320Z 2400/2424 22012G22KT P6SM SCT050 SCT250
     FM240400 21012KT P6SM VCSH BKN040 OVC200
      TEMPO 2405/2408 4SM -TSRA OVC025CB
     FM241000 23009KT P6SM VCSH BKN008
     FM241400 24009KT P6SM BKN020 PROB30 2416/2418 -SHRA OVC012
     FM242100 24003KT P6SM VCSH BKN040=

USA.gov is the U.S. government's official web portal to all federal, state and local government web resources and services.